Time;durP1;ratioP1;P1;durP2;ratioP2;P2;SDS_P1;SDS_P2;PMS_P1;PMS_P2;Temp;Humidity;BMP_temperature;BMP_pressure;BME280_temperature;BME280_humidity;BME280_pressure;Samples;Min_cycle;Max_cycle;Signal;HPM_P1;HPM_P2
2022/07/04 00:01:31;;;;;;;6.20;4.20;;;;;;;;;;102295;1335;22616;-28
2022/07/04 00:04:00;;;;;;;4.60;4.20;;;;;;;;;;102396;1335;22601;-28
2022/07/04 00:06:29;;;;;;;4.60;3.60;;;;;;;;;;102350;1334;22586;-28
2022/07/04 00:08:58;;;;;;;2.90;2.70;;;;;;;;;;102336;1334;22610;-24
2022/07/04 00:11:27;;;;;;;3.50;3.10;;;;;;;;;;102329;1335;22589;-28
2022/07/04 00:13:55;;;;;;;8.40;2.90;;;;;;;;;;102332;1335;22656;-24
2022/07/04 00:16:24;;;;;;;4.30;3.50;;;;;;;;;;102341;1335;22591;-28
2022/07/04 00:18:53;;;;;;;9.50;3.50;;;;;;;;;;101566;1335;1002698;-24
2022/07/04 00:21:22;;;;;;;4.70;3.70;;;;;;;;;;102379;1335;22591;-27
2022/07/04 00:23:51;;;;;;;3.50;3.20;;;;;;;;;;102401;1335;22635;-30
2022/07/04 00:26:19;;;;;;;3.90;3.00;;;;;;;;;;102364;1335;22590;-24
2022/07/04 00:28:48;;;;;;;4.30;4.00;;;;;;;;;;102334;1335;22594;-24
2022/07/04 00:31:17;;;;;;;4.80;3.50;;;;;;;;;;102305;1329;22586;-30
2022/07/04 00:33:46;;;;;;;6.70;3.40;;;;;;;;;;102247;1335;25190;-28
2022/07/04 00:36:15;;;;;;;7.00;4.80;;;;;;;;;;102387;1335;22673;-26
2022/07/04 00:38:43;;;;;;;5.20;4.10;;;;;;;;;;102340;1334;22712;-28
2022/07/04 00:41:13;;;;;;;4.80;4.30;;;;;;;;;;102353;1334;22593;-24
2022/07/04 00:43:42;;;;;;;6.30;4.30;;;;;;;;;;102171;1335;22623;-26
2022/07/04 00:46:11;;;;;;;5.40;4.20;;;;;;;;;;102478;1335;22590;-24
2022/07/04 00:48:39;;;;;;;5.00;3.50;;;;;;;;;;102318;1335;22604;-24
2022/07/04 00:51:08;;;;;;;5.00;4.10;;;;;;;;;;102202;1335;22597;-28
2022/07/04 00:53:37;;;;;;;4.10;3.70;;;;;;;;;;102270;1335;22569;-29
2022/07/04 00:56:06;;;;;;;5.80;4.00;;;;;;;;;;102305;1329;22719;-28
2022/07/04 00:58:35;;;;;;;9.00;4.00;;;;;;;;;;102367;1335;22626;-24
2022/07/04 01:01:03;;;;;;;4.40;3.80;;;;;;;;;;102373;1334;22600;-25
2022/07/04 01:03:32;;;;;;;5.50;4.90;;;;;;;;;;102356;1335;22639;-26
2022/07/04 01:06:01;;;;;;;4.60;4.10;;;;;;;;;;102273;1334;22642;-28
2022/07/04 01:08:30;;;;;;;6.90;4.10;;;;;;;;;;102459;1335;22596;-28
2022/07/04 01:10:59;;;;;;;5.30;4.70;;;;;;;;;;102392;1335;22656;-30
2022/07/04 01:13:27;;;;;;;7.20;5.00;;;;;;;;;;102286;1335;22711;-27
2022/07/04 01:15:56;;;;;;;6.30;4.30;;;;;;;;;;102332;1335;22720;-25
2022/07/04 01:18:25;;;;;;;6.60;5.00;;;;;;;;;;102330;1334;23215;-24
2022/07/04 01:20:54;;;;;;;8.40;5.50;;;;;;;;;;102367;1335;22700;-24
2022/07/04 01:23:23;;;;;;;10.60;4.80;;;;;;;;;;102415;1329;22729;-28
2022/07/04 01:25:52;;;;;;;4.90;4.50;;;;;;;;;;102302;1335;22590;-30
2022/07/04 01:28:21;;;;;;;6.60;5.10;;;;;;;;;;102275;1335;22729;-30
2022/07/04 01:30:50;;;;;;;8.30;4.80;;;;;;;;;;102389;1335;22602;-28
2022/07/04 01:33:19;;;;;;;7.10;4.40;;;;;;;;;;102342;1335;22810;-24
2022/07/04 01:35:48;;;;;;;21.20;5.50;;;;;;;;;;102322;1335;26034;-24
2022/07/04 01:38:17;;;;;;;7.20;5.50;;;;;;;;;;102398;1335;22649;-28
2022/07/04 01:40:45;;;;;;;11.90;5.30;;;;;;;;;;102368;1329;22704;-25
2022/07/04 01:43:14;;;;;;;8.90;6.50;;;;;;;;;;102382;1335;22611;-28
2022/07/04 01:45:43;;;;;;;8.40;5.80;;;;;;;;;;102363;1334;22819;-28
2022/07/04 01:48:12;;;;;;;6.60;5.50;;;;;;;;;;102358;1335;25214;-28
2022/07/04 01:50:41;;;;;;;7.90;6.00;;;;;;;;;;102325;1329;22665;-28
2022/07/04 01:53:10;;;;;;;7.00;6.10;;;;;;;;;;102347;1335;22590;-23
2022/07/04 01:55:39;;;;;;;6.80;5.40;;;;;;;;;;102354;1335;22607;-28
2022/07/04 01:58:08;;;;;;;7.80;6.00;;;;;;;;;;102396;1334;23319;-26
2022/07/04 02:03:09;;;;;;;7.00;6.30;;;;;;;;;;102345;1335;22582;-24
2022/07/04 02:05:38;;;;;;;7.80;6.20;;;;;;;;;;102406;1335;22631;-23
2022/07/04 02:08:08;;;;;;;8.50;7.00;;;;;;;;;;102306;1335;22577;-28
2022/07/04 02:10:37;;;;;;;9.10;7.80;;;;;;;;;;102309;1335;22597;-23
2022/07/04 02:13:06;;;;;;;12.80;6.70;;;;;;;;;;102225;1335;22694;-27
2022/07/04 02:15:35;;;;;;;6.90;5.80;;;;;;;;;;102315;1335;22601;-24
2022/07/04 02:18:05;;;;;;;8.20;6.00;;;;;;;;;;102271;1335;22589;-24
2022/07/04 02:20:34;;;;;;;6.60;5.80;;;;;;;;;;102260;1335;22600;-24
2022/07/04 02:23:03;;;;;;;9.50;6.40;;;;;;;;;;102349;1335;22607;-25
2022/07/04 02:25:32;;;;;;;10.10;6.70;;;;;;;;;;102281;1332;25033;-28
2022/07/04 02:28:01;;;;;;;7.10;6.40;;;;;;;;;;102352;1336;22597;-27
2022/07/04 02:30:29;;;;;;;11.00;7.80;;;;;;;;;;102305;1335;22597;-27
2022/07/04 02:32:58;;;;;;;9.80;7.10;;;;;;;;;;102268;1335;22605;-25
2022/07/04 02:35:27;;;;;;;8.70;6.80;;;;;;;;;;102357;1335;22621;-24
2022/07/04 02:37:56;;;;;;;9.30;6.60;;;;;;;;;;102245;1335;22571;-24
2022/07/04 02:40:25;;;;;;;9.10;6.40;;;;;;;;;;102378;1335;22605;-27
2022/07/04 02:42:54;;;;;;;8.00;7.30;;;;;;;;;;102377;1335;22623;-28
2022/07/04 02:45:22;;;;;;;8.90;6.70;;;;;;;;;;102392;1335;22597;-31
2022/07/04 02:47:51;;;;;;;8.90;6.40;;;;;;;;;;102306;1335;22599;-28
2022/07/04 02:50:20;;;;;;;7.40;6.40;;;;;;;;;;102250;1335;22648;-28
2022/07/04 02:52:49;;;;;;;11.10;8.10;;;;;;;;;;102352;1335;22578;-28
2022/07/04 02:55:20;;;;;;;8.50;7.10;;;;;;;;;;102267;1335;22592;-28
2022/07/04 02:57:49;;;;;;;10.20;7.00;;;;;;;;;;102263;1335;22664;-28
2022/07/04 03:00:18;;;;;;;10.70;5.50;;;;;;;;;;102203;1335;22592;-31
2022/07/04 03:02:47;;;;;;;8.80;6.80;;;;;;;;;;102364;1335;22595;-24
2022/07/04 03:05:16;;;;;;;11.00;6.20;;;;;;;;;;102414;1334;22781;-28
2022/07/04 03:07:44;;;;;;;13.90;8.20;;;;;;;;;;102369;1335;22747;-28
2022/07/04 03:10:13;;;;;;;14.00;8.20;;;;;;;;;;102375;1335;22576;-31
2022/07/04 03:12:42;;;;;;;8.80;7.50;;;;;;;;;;102336;1329;22598;-24
2022/07/04 03:15:11;;;;;;;8.30;7.20;;;;;;;;;;102416;1335;22589;-28
2022/07/04 03:17:40;;;;;;;9.00;7.40;;;;;;;;;;102407;1335;22594;-31
2022/07/04 03:20:09;;;;;;;7.80;5.30;;;;;;;;;;102201;1332;22582;-24
2022/07/04 03:22:37;;;;;;;6.90;5.50;;;;;;;;;;102261;1335;22724;-28
2022/07/04 03:25:06;;;;;;;12.30;6.60;;;;;;;;;;102340;1335;22611;-28
2022/07/04 03:27:35;;;;;;;8.70;5.80;;;;;;;;;;102367;1335;25348;-30
2022/07/04 03:30:04;;;;;;;11.40;6.30;;;;;;;;;;102375;1329;22914;-28
2022/07/04 03:32:33;;;;;;;8.90;6.10;;;;;;;;;;102321;1335;22621;-23
2022/07/04 03:35:02;;;;;;;9.20;6.00;;;;;;;;;;102331;1336;22597;-29
2022/07/04 03:37:31;;;;;;;8.80;6.50;;;;;;;;;;102359;1335;22616;-29
2022/07/04 03:40:00;;;;;;;11.50;7.50;;;;;;;;;;102340;1335;22593;-24
2022/07/04 03:42:29;;;;;;;8.30;6.90;;;;;;;;;;102326;1335;22731;-28
2022/07/04 03:44:58;;;;;;;6.90;6.30;;;;;;;;;;102399;1333;22624;-28
2022/07/04 03:47:27;;;;;;;9.60;6.20;;;;;;;;;;102351;1335;22585;-26
2022/07/04 03:49:55;;;;;;;10.10;6.60;;;;;;;;;;102352;1335;22814;-25
2022/07/04 03:52:24;;;;;;;7.20;6.00;;;;;;;;;;102363;1335;22592;-24
2022/07/04 03:54:53;;;;;;;8.30;6.70;;;;;;;;;;102300;1335;22621;-28
2022/07/04 03:57:22;;;;;;;10.90;7.30;;;;;;;;;;102329;1335;22600;-29
2022/07/04 03:59:51;;;;;;;6.70;6.10;;;;;;;;;;102382;1335;22593;-24
2022/07/04 04:02:20;;;;;;;9.00;5.90;;;;;;;;;;102269;1335;22595;-28
2022/07/04 04:07:21;;;;;;;9.90;7.40;;;;;;;;;;102223;1335;22724;-28
2022/07/04 04:09:50;;;;;;;12.00;7.40;;;;;;;;;;102354;1335;22593;-29
2022/07/04 04:12:18;;;;;;;20.40;7.00;;;;;;;;;;102317;1335;22579;-29
2022/07/04 04:14:47;;;;;;;17.80;7.90;;;;;;;;;;102285;1335;22598;-28
2022/07/04 04:17:16;;;;;;;9.90;7.30;;;;;;;;;;102266;1335;22600;-29
2022/07/04 04:19:45;;;;;;;9.30;7.80;;;;;;;;;;102307;1329;22593;-29
2022/07/04 04:22:14;;;;;;;9.90;6.20;;;;;;;;;;102407;1335;22566;-28
2022/07/04 04:24:43;;;;;;;11.10;6.50;;;;;;;;;;102416;1329;22597;-29
2022/07/04 04:27:12;;;;;;;13.60;6.90;;;;;;;;;;102351;1335;22582;-28
2022/07/04 04:29:41;;;;;;;6.40;5.30;;;;;;;;;;102254;1335;22609;-29
2022/07/04 04:32:10;;;;;;;8.30;6.50;;;;;;;;;;102313;1335;22723;-25
2022/07/04 04:34:39;;;;;;;13.30;5.10;;;;;;;;;;102299;1335;22584;-29
2022/07/04 04:37:07;;;;;;;8.10;5.60;;;;;;;;;;102393;1334;22598;-29
2022/07/04 04:39:36;;;;;;;10.40;6.50;;;;;;;;;;102347;1335;22605;-27
2022/07/04 04:42:05;;;;;;;5.90;5.10;;;;;;;;;;102318;1335;22633;-25
2022/07/04 04:44:34;;;;;;;6.20;5.00;;;;;;;;;;102421;1329;22717;-31
2022/07/04 04:47:03;;;;;;;6.10;5.10;;;;;;;;;;102367;1334;22600;-30
2022/07/04 04:49:31;;;;;;;7.20;5.70;;;;;;;;;;102298;1334;22590;-29
2022/07/04 04:52:00;;;;;;;5.70;5.10;;;;;;;;;;102356;1335;22609;-26
2022/07/04 04:54:29;;;;;;;8.30;5.90;;;;;;;;;;102380;1335;22599;-23
2022/07/04 04:56:58;;;;;;;6.50;5.80;;;;;;;;;;102433;1335;22604;-24
2022/07/04 04:59:29;;;;;;;14.40;5.70;;;;;;;;;;102343;1334;22588;-25
2022/07/04 05:01:58;;;;;;;8.20;4.80;;;;;;;;;;102334;1335;22565;-28
2022/07/04 05:04:27;;;;;;;8.80;4.40;;;;;;;;;;102317;1335;22618;-25
2022/07/04 05:06:56;;;;;;;6.40;5.40;;;;;;;;;;102314;1335;22606;-25
2022/07/04 05:09:25;;;;;;;7.00;4.00;;;;;;;;;;102347;1335;22642;-25
2022/07/04 05:11:53;;;;;;;7.30;5.40;;;;;;;;;;102349;1334;22852;-29
2022/07/04 05:14:22;;;;;;;7.20;5.30;;;;;;;;;;102326;1335;22564;-25
2022/07/04 05:16:51;;;;;;;5.10;4.70;;;;;;;;;;102379;1335;22607;-25
2022/07/04 05:19:20;;;;;;;7.60;5.30;;;;;;;;;;102329;1328;22607;-30
2022/07/04 05:21:49;;;;;;;10.20;5.20;;;;;;;;;;102363;1335;22609;-29
2022/07/04 05:24:17;;;;;;;7.20;4.40;;;;;;;;;;102307;1335;22630;-25
2022/07/04 05:26:55;;;;;;;6.30;4.60;;;;;;;;;;102392;1335;22583;-29
2022/07/04 05:29:23;;;;;;;5.40;4.70;;;;;;;;;;102444;1335;22618;-25
2022/07/04 05:31:52;;;;;;;5.90;4.50;;;;;;;;;;102415;1335;22579;-28
2022/07/04 05:34:21;;;;;;;4.90;4.30;;;;;;;;;;102341;1328;22587;-26
2022/07/04 05:36:50;;;;;;;5.80;5.20;;;;;;;;;;102358;1334;22718;-25
2022/07/04 05:39:19;;;;;;;5.50;5.00;;;;;;;;;;102349;1335;22605;-28
2022/07/04 05:41:48;;;;;;;8.40;5.00;;;;;;;;;;102324;1335;22660;-30
2022/07/04 05:44:16;;;;;;;6.90;4.60;;;;;;;;;;102367;1335;22582;-28
2022/07/04 05:46:45;;;;;;;5.30;4.10;;;;;;;;;;102376;1335;22596;-24
2022/07/04 05:49:14;;;;;;;5.00;4.20;;;;;;;;;;102342;1335;22589;-28
2022/07/04 05:51:43;;;;;;;5.50;5.00;;;;;;;;;;102312;1335;22601;-25
2022/07/04 05:54:12;;;;;;;4.30;3.90;;;;;;;;;;102368;1334;22594;-28
2022/07/04 05:56:42;;;;;;;5.90;4.50;;;;;;;;;;102406;1334;22595;-28
2022/07/04 05:59:11;;;;;;;5.00;4.60;;;;;;;;;;102305;1335;22718;-27
2022/07/04 06:01:39;;;;;;;5.20;4.60;;;;;;;;;;102363;1335;22590;-26
2022/07/04 06:04:08;;;;;;;5.30;4.90;;;;;;;;;;102414;1335;22596;-24
2022/07/04 06:06:37;;;;;;;14.10;5.10;;;;;;;;;;102423;1334;22590;-25
2022/07/04 06:09:06;;;;;;;7.60;5.30;;;;;;;;;;102366;1334;22720;-29
2022/07/04 06:11:35;;;;;;;9.30;5.60;;;;;;;;;;102336;1335;22602;-27
2022/07/04 06:14:04;;;;;;;5.80;4.90;;;;;;;;;;102280;1335;22633;-26
2022/07/04 06:16:33;;;;;;;5.00;4.60;;;;;;;;;;102172;1335;90882;-26
2022/07/04 06:19:02;;;;;;;4.70;4.30;;;;;;;;;;102315;1335;22603;-30
2022/07/04 06:21:31;;;;;;;6.10;4.50;;;;;;;;;;102367;1335;22628;-30
2022/07/04 06:24:00;;;;;;;6.20;5.70;;;;;;;;;;102328;1335;22630;-30
2022/07/04 06:26:30;;;;;;;4.40;3.70;;;;;;;;;;102250;1335;22675;-28
2022/07/04 06:28:58;;;;;;;10.70;5.80;;;;;;;;;;102377;1335;22657;-24
2022/07/04 06:31:27;;;;;;;4.60;3.00;;;;;;;;;;102351;1335;22560;-29
2022/07/04 06:36:28;;;;;;;4.00;3.40;;;;;;;;;;102304;1335;22645;-25
2022/07/04 06:38:58;;;;;;;6.10;4.60;;;;;;;;;;102354;1335;22575;-26
2022/07/04 06:41:27;;;;;;;3.90;3.00;;;;;;;;;;102260;1335;22601;-29
2022/07/04 06:43:56;;;;;;;4.20;3.80;;;;;;;;;;102297;1335;22811;-29
2022/07/04 06:46:25;;;;;;;5.30;4.40;;;;;;;;;;102455;1333;22607;-29
2022/07/04 06:48:54;;;;;;;8.40;4.10;;;;;;;;;;102346;1335;22583;-29
2022/07/04 06:51:23;;;;;;;6.10;3.30;;;;;;;;;;102411;1335;22581;-30
2022/07/04 06:53:52;;;;;;;4.30;3.30;;;;;;;;;;102309;1335;22686;-28
2022/07/04 06:56:21;;;;;;;4.20;3.20;;;;;;;;;;102311;1329;22573;-27
2022/07/04 06:58:49;;;;;;;4.40;3.60;;;;;;;;;;102352;1335;22611;-29
2022/07/04 07:01:18;;;;;;;5.80;4.60;;;;;;;;;;102300;1330;22605;-29
2022/07/04 07:03:47;;;;;;;4.20;3.80;;;;;;;;;;102333;1335;22603;-25
2022/07/04 07:06:16;;;;;;;4.30;3.90;;;;;;;;;;102342;1335;22599;-28
2022/07/04 07:08:45;;;;;;;3.70;3.20;;;;;;;;;;102410;1335;22597;-24
2022/07/04 07:11:14;;;;;;;3.60;3.30;;;;;;;;;;102376;1335;22595;-24
2022/07/04 07:13:43;;;;;;;7.90;3.50;;;;;;;;;;102325;1335;22721;-26
2022/07/04 07:16:12;;;;;;;3.60;3.30;;;;;;;;;;102322;1335;22668;-28
2022/07/04 07:18:41;;;;;;;4.40;3.50;;;;;;;;;;102319;1335;22614;-28
2022/07/04 07:21:10;;;;;;;4.30;3.50;;;;;;;;;;102408;1335;22652;-25
2022/07/04 07:23:39;;;;;;;3.30;3.00;;;;;;;;;;102429;1335;22597;-27
2022/07/04 07:26:08;;;;;;;4.00;3.30;;;;;;;;;;102378;1327;22606;-25
2022/07/04 07:28:37;;;;;;;3.90;2.80;;;;;;;;;;102321;1335;22584;-29
2022/07/04 07:31:06;;;;;;;6.40;3.80;;;;;;;;;;102247;1335;22650;-25
2022/07/04 07:33:35;;;;;;;5.80;4.20;;;;;;;;;;102292;1335;22824;-25
2022/07/04 07:36:04;;;;;;;3.20;3.00;;;;;;;;;;102393;1336;22617;-29
2022/07/04 07:38:33;;;;;;;4.60;3.70;;;;;;;;;;102373;1336;22607;-25
2022/07/04 07:41:02;;;;;;;3.60;3.30;;;;;;;;;;102329;1327;22700;-25
2022/07/04 07:43:31;;;;;;;4.00;3.30;;;;;;;;;;102376;1336;22584;-25
2022/07/04 07:46:00;;;;;;;7.80;3.30;;;;;;;;;;102328;1335;22638;-28
2022/07/04 07:48:29;;;;;;;3.50;3.30;;;;;;;;;;102279;1335;22665;-24
2022/07/04 07:50:57;;;;;;;4.60;4.00;;;;;;;;;;102318;1336;22624;-29
2022/07/04 07:53:26;;;;;;;3.40;3.20;;;;;;;;;;102317;1334;22602;-29
2022/07/04 07:55:55;;;;;;;14.30;3.60;;;;;;;;;;102267;1335;22608;-31
2022/07/04 07:58:24;;;;;;;5.60;3.20;;;;;;;;;;102335;1335;22609;-27
2022/07/04 08:00:53;;;;;;;3.90;3.20;;;;;;;;;;102389;1329;22752;-24
2022/07/04 08:05:55;;;;;;;6.20;4.50;;;;;;;;;;102326;1336;22590;-28
2022/07/04 08:08:23;;;;;;;3.00;2.70;;;;;;;;;;102388;1335;22606;-27
2022/07/04 08:10:52;;;;;;;5.00;3.50;;;;;;;;;;102336;1334;24194;-28
2022/07/04 08:13:21;;;;;;;3.30;2.80;;;;;;;;;;102275;1335;22606;-24
2022/07/04 08:15:50;;;;;;;3.80;3.50;;;;;;;;;;102274;1336;22679;-27
2022/07/04 08:18:19;;;;;;;4.00;3.70;;;;;;;;;;102384;1334;22591;-27
2022/07/04 08:20:48;;;;;;;5.00;3.00;;;;;;;;;;102367;1335;22592;-26
2022/07/04 08:23:17;;;;;;;3.50;2.90;;;;;;;;;;102287;1335;22784;-30
2022/07/04 08:25:46;;;;;;;7.10;4.20;;;;;;;;;;102346;1335;22604;-29
2022/07/04 08:28:23;;;;;;;3.40;3.20;;;;;;;;;;102362;1335;22692;-26
2022/07/04 08:30:52;;;;;;;3.70;3.40;;;;;;;;;;102262;1335;22624;-30
2022/07/04 08:33:21;;;;;;;4.70;4.30;;;;;;;;;;102345;1335;22588;-29
2022/07/04 08:35:50;;;;;;;4.50;3.70;;;;;;;;;;102387;1335;22600;-29
2022/07/04 08:38:19;;;;;;;3.20;2.90;;;;;;;;;;102442;1335;22598;-23
2022/07/04 08:40:50;;;;;;;4.90;2.90;;;;;;;;;;102291;1335;22618;-26
2022/07/04 08:43:19;;;;;;;4.10;3.30;;;;;;;;;;102294;1335;22613;-30
2022/07/04 08:45:48;;;;;;;7.40;3.50;;;;;;;;;;102405;1335;23026;-29
2022/07/04 08:48:17;;;;;;;3.80;3.50;;;;;;;;;;102283;1335;22578;-30
2022/07/04 08:50:47;;;;;;;2.80;2.30;;;;;;;;;;102327;1335;22588;-26
2022/07/04 08:53:18;;;;;;;4.10;3.60;;;;;;;;;;102413;1328;22647;-30
2022/07/04 09:00:51;;;;;;;;;;;;;;;;;;102353;1335;22610;-25
2022/07/04 09:03:21;;;;;;;2.80;2.60;;;;;;;;;;102347;1335;22602;-24
2022/07/04 09:05:50;;;;;;;3.80;3.20;;;;;;;;;;102307;1334;22596;-28
2022/07/04 09:08:19;;;;;;;3.10;2.60;;;;;;;;;;102286;1336;22916;-28
2022/07/04 09:10:48;;;;;;;4.30;3.10;;;;;;;;;;102391;1335;22623;-24
2022/07/04 09:13:17;;;;;;;8.10;2.90;;;;;;;;;;102387;1335;22589;-30
2022/07/04 09:15:46;;;;;;;4.10;3.70;;;;;;;;;;102399;1335;22608;-28
2022/07/04 09:18:19;;;;;;;5.50;3.80;;;;;;;;;;102341;1335;22711;-24
2022/07/04 09:20:47;;;;;;;;;;;;;;;;;;102400;1335;22601;-28
2022/07/04 09:23:17;;;;;;;4.10;2.60;;;;;;;;;;102348;1334;22587;-28
2022/07/04 09:25:46;;;;;;;3.20;3.00;;;;;;;;;;102343;1335;22586;-26
2022/07/04 09:28:18;;;;;;;2.50;2.30;;;;;;;;;;102369;1335;22616;-28
2022/07/04 09:30:56;;;;;;;2.30;2.10;;;;;;;;;;102337;1331;22587;-26
2022/07/04 09:33:37;;;;;;;3.80;2.60;;;;;;;;;;102255;1335;22721;-25
2022/07/04 09:36:06;;;;;;;;;;;;;;;;;;102407;1335;22761;-31
2022/07/04 09:38:34;;;;;;;3.40;2.50;;;;;;;;;;102379;1335;22600;-24
2022/07/04 09:43:35;;;;;;;;;;;;;;;;;;102393;1334;22626;-24
2022/07/04 09:46:05;;;;;;;3.50;2.40;;;;;;;;;;102338;1334;22659;-24
2022/07/04 09:48:37;;;;;;;3.90;3.40;;;;;;;;;;102255;1335;22706;-25
2022/07/04 09:51:06;;;;;;;4.40;3.50;;;;;;;;;;102364;1335;22711;-28
2022/07/04 09:53:35;;;;;;;3.30;2.80;;;;;;;;;;102330;1335;22616;-28
2022/07/04 09:56:04;;;;;;;4.30;3.30;;;;;;;;;;102414;1335;22607;-25
2022/07/04 09:58:34;;;;;;;13.30;3.10;;;;;;;;;;102352;1330;22607;-28
2022/07/04 10:01:03;;;;;;;3.80;3.30;;;;;;;;;;102279;1335;22654;-24
2022/07/04 10:03:34;;;;;;;3.00;2.40;;;;;;;;;;102408;1335;22595;-25
2022/07/04 10:06:04;;;;;;;3.00;2.30;;;;;;;;;;102254;1335;22670;-24
2022/07/04 10:08:33;;;;;;;5.80;2.80;;;;;;;;;;102363;1335;22613;-28
2022/07/04 10:11:03;;;;;;;2.80;2.20;;;;;;;;;;102318;1330;22594;-24
2022/07/04 10:13:32;;;;;;;6.20;2.70;;;;;;;;;;102401;1335;22609;-31
2022/07/04 10:16:00;;;;;;;6.30;3.10;;;;;;;;;;102355;1335;22586;-23
2022/07/04 10:18:29;;;;;;;3.40;2.40;;;;;;;;;;102258;1336;22598;-30
2022/07/04 10:20:58;;;;;;;4.30;3.20;;;;;;;;;;102329;1335;22565;-24
2022/07/04 10:23:31;;;;;;;3.00;2.30;;;;;;;;;;102306;1335;22620;-25
2022/07/04 10:26:00;;;;;;;2.70;2.20;;;;;;;;;;102348;1335;22602;-28
2022/07/04 10:28:29;;;;;;;3.50;2.90;;;;;;;;;;102345;1335;22588;-24
2022/07/04 10:30:58;;;;;;;3.00;2.60;;;;;;;;;;102298;1335;22920;-24
2022/07/04 10:33:27;;;;;;;3.30;3.00;;;;;;;;;;102260;1335;22592;-30
2022/07/04 10:35:57;;;;;;;4.80;2.80;;;;;;;;;;102358;1335;22606;-30
2022/07/04 10:38:26;;;;;;;5.30;2.80;;;;;;;;;;102321;1335;22610;-31
2022/07/04 10:40:56;;;;;;;2.90;2.70;;;;;;;;;;102372;1329;22600;-25
2022/07/04 10:43:26;;;;;;;2.20;2.00;;;;;;;;;;102296;1329;22675;-24
2022/07/04 10:45:55;;;;;;;3.00;2.50;;;;;;;;;;102332;1335;22661;-25
2022/07/04 10:48:24;;;;;;;2.90;2.60;;;;;;;;;;102369;1336;22601;-28
2022/07/04 10:50:56;;;;;;;2.90;2.30;;;;;;;;;;102411;1335;22706;-28
2022/07/04 10:53:25;;;;;;;;;;;;;;;;;;102361;1335;22590;-24
2022/07/04 10:55:54;;;;;;;2.60;2.20;;;;;;;;;;102385;1335;22719;-30
2022/07/04 10:58:26;;;;;;;12.70;2.50;;;;;;;;;;102403;1335;22676;-24
2022/07/04 11:01:09;;;;;;;2.50;1.90;;;;;;;;;;102373;1335;22621;-29
2022/07/04 11:03:44;;;;;;;3.60;2.10;;;;;;;;;;102335;1335;22695;-31
2022/07/04 11:06:32;;;;;;;1.70;1.50;;;;;;;;;;102457;1335;22603;-26
2022/07/04 11:09:05;;;;;;;5.30;1.40;;;;;;;;;;102286;1335;22584;-30
2022/07/04 11:11:37;;;;;;;11.00;1.20;;;;;;;;;;102432;1335;22604;-26
2022/07/04 11:14:09;;;;;;;3.00;1.60;;;;;;;;;;102343;1335;22590;-30
2022/07/04 11:16:41;;;;;;;1.90;1.30;;;;;;;;;;102381;1335;22596;-25
2022/07/04 11:19:14;;;;;;;1.30;1.20;;;;;;;;;;102353;1335;22607;-29
2022/07/04 11:21:43;;;;;;;;;;;;;;;;;;102322;1335;22596;-25
2022/07/04 11:24:11;;;;;;;1.70;1.00;;;;;;;;;;102356;1335;22693;-25
2022/07/04 11:26:40;;;;;;;0.90;0.90;;;;;;;;;;102373;1335;22607;-29
2022/07/04 11:29:12;;;;;;;5.00;1.30;;;;;;;;;;102275;1335;22600;-24
2022/07/04 11:31:41;;;;;;;4.60;1.10;;;;;;;;;;102297;1335;22754;-28
2022/07/04 11:34:10;;;;;;;2.00;1.00;;;;;;;;;;102339;1335;22611;-25
2022/07/04 11:36:39;;;;;;;0.80;0.80;;;;;;;;;;102373;1335;22591;-27
2022/07/04 11:39:09;;;;;;;1.30;1.10;;;;;;;;;;102381;1335;22603;-28
2022/07/04 11:46:44;;;;;;;1.70;1.10;;;;;;;;;;102249;1335;22698;-29
2022/07/04 11:49:13;;;;;;;2.40;1.10;;;;;;;;;;102190;1335;22619;-25
2022/07/04 11:51:43;;;;;;;1.40;0.80;;;;;;;;;;102429;1335;22643;-27
2022/07/04 11:54:12;;;;;;;1.30;0.90;;;;;;;;;;102415;1335;22613;-26
2022/07/04 11:56:40;;;;;;;1.50;1.30;;;;;;;;;;102313;1335;22596;-24
2022/07/04 11:59:12;;;;;;;1.70;0.80;;;;;;;;;;102255;1336;23128;-28
2022/07/04 12:01:43;;;;;;;1.00;0.70;;;;;;;;;;102272;1335;22578;-29
2022/07/04 12:04:13;;;;;;;1.70;1.60;;;;;;;;;;102299;1329;22587;-29
2022/07/04 12:06:42;;;;;;;1.70;1.00;;;;;;;;;;102348;1335;22603;-29
2022/07/04 12:09:11;;;;;;;1.70;1.40;;;;;;;;;;102349;1335;22597;-25
2022/07/04 12:11:43;;;;;;;5.40;1.40;;;;;;;;;;102395;1329;22732;-24
2022/07/04 12:14:13;;;;;;;4.70;0.90;;;;;;;;;;102331;1335;22625;-28
2022/07/04 12:16:42;;;;;;;5.20;1.10;;;;;;;;;;102276;1335;22627;-28
2022/07/04 12:19:11;;;;;;;1.10;1.10;;;;;;;;;;102287;1335;22623;-30
2022/07/04 12:21:42;;;;;;;2.70;1.20;;;;;;;;;;102250;1335;22714;-28
2022/07/04 12:24:10;;;;;;;2.10;1.50;;;;;;;;;;102355;1335;22616;-22
2022/07/04 12:26:43;;;;;;;1.60;0.90;;;;;;;;;;102375;1335;22596;-28
2022/07/04 12:29:12;;;;;;;32.30;1.50;;;;;;;;;;102244;1335;22725;-25
2022/07/04 12:31:41;;;;;;;1.30;1.10;;;;;;;;;;102367;1335;22599;-28
2022/07/04 12:34:13;;;;;;;2.40;1.60;;;;;;;;;;102251;1335;22633;-26
2022/07/04 12:36:45;;;;;;;0.50;0.50;;;;;;;;;;102306;1335;22631;-24
2022/07/04 12:39:18;;;;;;;1.70;1.30;;;;;;;;;;102382;1335;25533;-30
2022/07/04 12:41:48;;;;;;;3.60;1.90;;;;;;;;;;102270;1334;21895;-30
2022/07/04 12:44:21;;;;;;;1.30;1.10;;;;;;;;;;102312;1335;22654;-29
2022/07/04 12:46:55;;;;;;;1.90;1.30;;;;;;;;;;102326;1335;22628;-25
2022/07/04 12:49:24;;;;;;;1.40;0.90;;;;;;;;;;102352;1327;22599;-28
2022/07/04 12:52:02;;;;;;;1.80;1.50;;;;;;;;;;102306;1335;22597;-25
2022/07/04 12:54:31;;;;;;;1.20;1.00;;;;;;;;;;102388;1335;22605;-28
2022/07/04 12:57:03;;;;;;;1.30;1.20;;;;;;;;;;102343;1335;22893;-30
2022/07/04 12:59:33;;;;;;;3.10;1.20;;;;;;;;;;102369;1335;22636;-28
2022/07/04 13:02:11;;;;;;;1.30;1.20;;;;;;;;;;102389;1335;22611;-28
2022/07/04 13:04:40;;;;;;;2.00;1.00;;;;;;;;;;102295;1335;22646;-31
2022/07/04 13:07:12;;;;;;;2.70;1.30;;;;;;;;;;102372;1335;22583;-30
2022/07/04 13:09:42;;;;;;;2.50;1.10;;;;;;;;;;102362;1335;22609;-30
2022/07/04 13:14:43;;;;;;;1.80;1.40;;;;;;;;;;102265;1335;22624;-27
2022/07/04 13:17:12;;;;;;;1.70;1.40;;;;;;;;;;102390;1335;22599;-27
2022/07/04 13:19:40;;;;;;;1.20;1.00;;;;;;;;;;101526;1336;1003209;-29
2022/07/04 13:22:09;;;;;;;1.40;1.20;;;;;;;;;;102290;1334;22580;-28
2022/07/04 13:24:38;;;;;;;2.20;1.60;;;;;;;;;;102407;1335;22605;-28
2022/07/04 13:27:07;;;;;;;2.50;2.20;;;;;;;;;;102334;1335;22721;-24
2022/07/04 13:29:36;;;;;;;2.40;1.80;;;;;;;;;;102375;1335;22592;-26
2022/07/04 13:32:05;;;;;;;1.20;1.10;;;;;;;;;;102465;1335;22585;-28
2022/07/04 13:34:34;;;;;;;3.60;1.80;;;;;;;;;;102334;1335;22597;-25
2022/07/04 13:37:03;;;;;;;3.10;1.80;;;;;;;;;;102348;1335;22598;-28
2022/07/04 13:39:32;;;;;;;2.40;1.90;;;;;;;;;;102395;1335;22595;-29
2022/07/04 13:42:01;;;;;;;2.10;1.90;;;;;;;;;;102385;1335;22660;-23
2022/07/04 13:44:30;;;;;;;4.00;1.80;;;;;;;;;;102296;1335;22621;-28
2022/07/04 13:46:59;;;;;;;1.70;1.60;;;;;;;;;;102312;1335;22618;-28
2022/07/04 13:49:28;;;;;;;6.60;2.30;;;;;;;;;;102310;1335;22582;-28
2022/07/04 13:51:57;;;;;;;2.20;1.90;;;;;;;;;;102312;1335;22600;-31
2022/07/04 13:54:26;;;;;;;1.90;1.80;;;;;;;;;;102359;1329;22603;-27
2022/07/04 13:56:55;;;;;;;8.70;2.70;;;;;;;;;;102405;1335;22595;-25
2022/07/04 13:59:24;;;;;;;10.10;2.10;;;;;;;;;;102340;1329;22603;-29
2022/07/04 14:01:53;;;;;;;7.60;1.70;;;;;;;;;;102375;1335;22598;-29
2022/07/04 14:04:21;;;;;;;2.50;1.90;;;;;;;;;;102326;1335;22610;-30
2022/07/04 14:06:50;;;;;;;2.40;1.90;;;;;;;;;;102450;1335;22600;-30
2022/07/04 14:09:19;;;;;;;1.70;1.40;;;;;;;;;;102424;1335;22600;-30
2022/07/04 14:11:48;;;;;;;1.80;1.70;;;;;;;;;;102355;1335;22598;-30
2022/07/04 14:14:17;;;;;;;1.90;1.30;;;;;;;;;;102228;1329;22601;-28
2022/07/04 14:16:46;;;;;;;1.80;1.60;;;;;;;;;;102200;1335;189015;-25
2022/07/04 14:19:15;;;;;;;1.50;1.40;;;;;;;;;;102422;1335;23051;-24
2022/07/04 14:21:44;;;;;;;1.70;1.60;;;;;;;;;;102369;1335;22604;-26
2022/07/04 14:24:12;;;;;;;3.00;1.60;;;;;;;;;;102262;1335;22599;-29
2022/07/04 14:26:42;;;;;;;2.40;1.00;;;;;;;;;;102353;1335;22679;-25
2022/07/04 14:29:11;;;;;;;1.70;1.60;;;;;;;;;;102348;1335;22893;-29
2022/07/04 14:31:39;;;;;;;1.30;1.20;;;;;;;;;;102365;1335;22618;-28
2022/07/04 14:34:11;;;;;;;2.10;1.70;;;;;;;;;;102339;1335;22615;-28
2022/07/04 14:36:41;;;;;;;16.20;1.50;;;;;;;;;;102302;1335;22614;-24
2022/07/04 14:39:09;;;;;;;4.70;1.30;;;;;;;;;;102286;1335;22603;-28
2022/07/04 14:41:38;;;;;;;2.10;1.20;;;;;;;;;;102369;1335;22580;-25
2022/07/04 14:44:07;;;;;;;1.00;1.00;;;;;;;;;;102311;1329;22637;-24
2022/07/04 14:46:36;;;;;;;1.80;0.80;;;;;;;;;;102375;1335;22629;-27
2022/07/04 14:49:05;;;;;;;1.80;1.00;;;;;;;;;;102374;1335;22711;-24
2022/07/04 14:51:34;;;;;;;1.00;0.90;;;;;;;;;;102289;1328;22711;-24
2022/07/04 14:54:03;;;;;;;2.20;1.10;;;;;;;;;;102296;1335;22586;-24
2022/07/04 14:56:32;;;;;;;1.10;0.60;;;;;;;;;;102349;1335;22676;-29
2022/07/04 14:59:01;;;;;;;0.30;0.30;;;;;;;;;;102464;1335;22719;-24
2022/07/04 15:01:30;;;;;;;0.80;0.80;;;;;;;;;;102271;1335;22634;-30
2022/07/04 15:03:59;;;;;;;3.70;1.00;;;;;;;;;;102335;1335;22610;-28
2022/07/04 15:06:28;;;;;;;3.20;1.20;;;;;;;;;;102315;1335;22608;-28
2022/07/04 15:08:57;;;;;;;1.30;1.20;;;;;;;;;;102347;1335;22611;-24